Time;durP1;ratioP1;P1;durP2;ratioP2;P2;SDS_P1;SDS_P2;PMS_P1;PMS_P2;Temp;Humidity;BMP_temperature;BMP_pressure;BME280_temperature;BME280_humidity;BME280_pressure;Samples;Min_cycle;Max_cycle;Signal;HPM_P1;HPM_P2
2023/09/24 00:02:59;;;;;;;5.80;5.40;;;12.50;73.00;;;;;;6189697;28;20254;-81
2023/09/24 00:06:07;;;;;;;5.80;5.40;;;12.50;73.10;;;;;;6189854;28;20294;-83
2023/09/24 00:09:12;;;;;;;7.57;5.90;;;12.50;73.20;;;;;;6188122;28;20259;-82
2023/09/24 00:12:17;;;;;;;5.93;5.53;;;12.50;73.40;;;;;;6189863;28;20272;-82
2023/09/24 00:15:21;;;;;;;5.60;5.30;;;12.50;73.60;;;;;;6189607;28;20247;-84
2023/09/24 00:18:24;;;;;;;7.13;5.63;;;12.50;73.70;;;;;;6186458;28;20319;-84
2023/09/24 00:21:28;;;;;;;6.40;6.00;;;12.50;74.10;;;;;;6190314;28;21110;-82
2023/09/24 00:24:31;;;;;;;6.13;5.70;;;12.40;74.00;;;;;;6193399;28;20246;-82
2023/09/24 00:27:35;;;;;;;6.43;6.03;;;12.50;73.90;;;;;;6189583;28;20649;-84
2023/09/24 00:30:41;;;;;;;5.83;5.53;;;12.40;74.10;;;;;;6186527;28;20240;-80
2023/09/24 00:33:44;;;;;;;6.30;5.90;;;12.30;74.10;;;;;;6188266;28;20267;-81
2023/09/24 00:36:50;;;;;;;6.50;6.13;;;12.30;74.00;;;;;;6188211;28;20334;-83
2023/09/24 00:39:53;;;;;;;6.73;6.33;;;12.30;74.20;;;;;;6186999;28;20255;-82
2023/09/24 00:42:57;;;;;;;6.77;6.23;;;12.30;74.50;;;;;;6186870;28;20310;-83
2023/09/24 00:46:03;;;;;;;6.27;5.77;;;12.20;74.50;;;;;;6183611;28;20243;-82
2023/09/24 00:49:06;;;;;;;4.97;4.87;;;12.20;74.40;;;;;;6188332;28;20243;-83
2023/09/24 00:52:10;;;;;;;6.60;6.07;;;12.20;74.50;;;;;;6191646;28;20235;-83
2023/09/24 00:55:17;;;;;;;6.30;6.00;;;12.20;74.70;;;;;;6193111;28;20235;-83
2023/09/24 00:58:25;;;;;;;6.40;5.97;;;12.10;74.80;;;;;;6184019;28;20245;-81
2023/09/24 01:01:29;;;;;;;5.80;5.53;;;12.10;74.90;;;;;;6198564;28;20766;-84
2023/09/24 01:04:33;;;;;;;7.07;6.57;;;12.10;74.80;;;;;;6187236;28;20617;-82
2023/09/24 01:07:36;;;;;;;6.87;6.47;;;12.00;74.90;;;;;;6200609;28;20242;-82
2023/09/24 01:10:39;;;;;;;6.63;6.13;;;12.00;74.80;;;;;;6191932;28;20293;-83
2023/09/24 01:13:45;;;;;;;6.97;6.37;;;12.00;75.20;;;;;;6189179;28;20826;-81
2023/09/24 01:16:49;;;;;;;6.77;6.27;;;12.00;75.20;;;;;;6191620;28;20247;-82
2023/09/24 01:19:53;;;;;;;7.07;6.47;;;12.00;75.40;;;;;;6192329;28;20240;-81
2023/09/24 01:23:00;;;;;;;7.10;6.60;;;12.00;75.30;;;;;;6188851;28;20319;-83
2023/09/24 01:26:05;;;;;;;5.93;5.37;;;11.90;75.30;;;;;;6191466;28;21003;-83
2023/09/24 01:29:09;;;;;;;5.70;5.40;;;12.00;75.30;;;;;;6193027;28;20235;-84
2023/09/24 01:32:12;;;;;;;5.73;5.33;;;11.90;75.20;;;;;;6197987;28;20244;-82
2023/09/24 01:35:15;;;;;;;4.87;4.77;;;11.90;75.30;;;;;;6185409;28;20432;-82
2023/09/24 01:38:20;;;;;;;6.23;5.90;;;11.90;75.20;;;;;;6199489;28;20731;-82
2023/09/24 01:41:25;;;;;;;6.00;5.77;;;11.90;75.50;;;;;;6188741;28;20534;-81
2023/09/24 01:44:28;;;;;;;5.33;5.20;;;11.90;75.50;;;;;;6191662;28;20616;-82
2023/09/24 01:47:32;;;;;;;4.97;4.87;;;11.90;75.40;;;;;;6189493;28;20240;-82
2023/09/24 01:50:36;;;;;;;6.23;5.83;;;11.90;75.30;;;;;;6174825;28;20260;-82
2023/09/24 01:53:42;;;;;;;5.43;5.13;;;11.90;75.70;;;;;;6192070;28;20846;-82
2023/09/24 01:56:47;;;;;;;6.57;6.07;;;11.90;75.60;;;;;;6192632;28;20927;-80
2023/09/24 01:59:50;;;;;;;5.23;4.90;;;11.90;76.40;;;;;;6188349;28;20294;-83
2023/09/24 02:02:56;;;;;;;5.10;4.90;;;11.90;76.10;;;;;;6191773;28;20334;-83
2023/09/24 02:05:59;;;;;;;4.90;4.80;;;12.00;76.00;;;;;;6191908;28;20240;-82
2023/09/24 02:09:04;;;;;;;5.00;4.80;;;12.00;75.80;;;;;;6194343;28;20251;-82
2023/09/24 02:12:08;;;;;;;5.33;5.10;;;12.00;75.80;;;;;;6194699;28;20589;-82
2023/09/24 02:15:17;;;;;;;5.00;4.80;;;12.00;75.70;;;;;;6192049;28;20303;-82
2023/09/24 02:18:21;;;;;;;5.07;4.87;;;11.90;75.70;;;;;;6189371;28;20243;-82
2023/09/24 02:21:26;;;;;;;5.53;5.30;;;11.90;75.70;;;;;;6196210;28;20228;-81
2023/09/24 02:24:30;;;;;;;5.77;5.27;;;11.90;75.90;;;;;;6189859;28;20405;-83
2023/09/24 02:27:34;;;;;;;5.77;5.47;;;11.90;75.90;;;;;;6191367;28;20231;-83
2023/09/24 02:30:37;;;;;;;5.90;5.60;;;11.90;75.90;;;;;;6190912;28;20822;-82
2023/09/24 02:33:40;;;;;;;4.50;4.40;;;11.90;76.10;;;;;;6190530;28;20327;-80
2023/09/24 02:36:44;;;;;;;5.13;4.87;;;11.80;76.10;;;;;;6192332;28;20239;-83
2023/09/24 02:39:48;;;;;;;6.60;6.20;;;11.80;76.10;;;;;;6190740;28;20241;-83
2023/09/24 02:42:53;;;;;;;5.93;5.63;;;11.70;76.80;;;;;;6188799;28;20331;-81
2023/09/24 02:45:57;;;;;;;6.77;6.30;;;11.70;76.70;;;;;;6190586;28;20947;-81
2023/09/24 02:49:02;;;;;;;6.43;6.03;;;11.70;76.90;;;;;;6190323;28;20653;-82
2023/09/24 02:52:06;;;;;;;5.40;5.20;;;11.80;77.10;;;;;;6183137;28;20321;-83
2023/09/24 02:55:13;;;;;;;6.30;5.80;;;11.90;76.90;;;;;;6172238;28;20739;-83
2023/09/24 02:58:17;;;;;;;5.90;5.60;;;11.90;77.00;;;;;;6188488;28;20307;-81
2023/09/24 03:01:21;;;;;;;7.03;6.53;;;12.00;77.00;;;;;;6188302;28;20263;-83
2023/09/24 03:04:24;;;;;;;5.93;5.63;;;12.00;77.20;;;;;;6185632;28;20252;-85
2023/09/24 03:07:28;;;;;;;6.10;5.77;;;12.10;77.00;;;;;;6188027;28;20302;-82
2023/09/24 03:10:33;;;;;;;6.43;6.03;;;12.10;76.80;;;;;;6187684;28;20246;-82
2023/09/24 03:13:37;;;;;;;6.07;5.63;;;12.10;76.80;;;;;;6186592;28;20240;-84
2023/09/24 03:16:40;;;;;;;5.77;5.57;;;12.20;76.70;;;;;;6190075;28;20390;-81
2023/09/24 03:19:43;;;;;;;6.63;6.10;;;12.30;76.80;;;;;;6189390;28;20348;-83
2023/09/24 03:22:48;;;;;;;5.83;5.43;;;12.30;76.90;;;;;;6183932;28;20759;-83
2023/09/24 03:25:53;;;;;;;5.03;4.83;;;12.40;76.80;;;;;;6180315;28;20243;-81
2023/09/24 03:28:56;;;;;;;7.33;6.83;;;12.50;76.70;;;;;;6190299;28;20247;-83
2023/09/24 03:32:00;;;;;;;6.27;5.80;;;12.50;76.80;;;;;;6176180;28;20243;-82
2023/09/24 03:35:05;;;;;;;6.40;6.00;;;12.50;76.50;;;;;;6186619;28;20243;-83
2023/09/24 03:38:08;;;;;;;6.40;6.10;;;12.60;76.50;;;;;;6193094;28;20248;-82
2023/09/24 03:41:18;;;;;;;6.00;5.60;;;12.70;76.20;;;;;;6187543;28;20232;-84
2023/09/24 03:44:21;;;;;;;8.70;6.00;;;12.80;76.00;;;;;;6189864;28;20246;-83
2023/09/24 03:47:24;;;;;;;5.90;5.70;;;12.80;76.00;;;;;;6185892;28;20332;-83
2023/09/24 03:50:27;;;;;;;6.60;6.30;;;12.80;75.80;;;;;;6186706;28;20355;-83
2023/09/24 03:53:31;;;;;;;6.30;6.00;;;12.80;75.80;;;;;;6188846;28;20266;-82
2023/09/24 03:56:35;;;;;;;6.47;5.93;;;12.90;75.90;;;;;;6189949;28;20637;-82
2023/09/24 03:59:39;;;;;;;8.40;6.43;;;12.90;76.00;;;;;;6185339;28;20228;-83
2023/09/24 04:02:43;;;;;;;6.83;6.47;;;12.90;75.90;;;;;;6180904;28;20243;-82
2023/09/24 04:05:46;;;;;;;7.63;7.10;;;12.90;75.90;;;;;;6187888;28;20356;-83
2023/09/24 04:08:51;;;;;;;7.10;6.60;;;12.90;75.80;;;;;;6185147;28;20240;-84
2023/09/24 04:11:56;;;;;;;6.20;5.93;;;13.00;75.90;;;;;;6172546;28;20232;-81
2023/09/24 04:14:59;;;;;;;7.10;6.70;;;13.00;75.80;;;;;;6202302;28;20246;-83
2023/09/24 04:18:02;;;;;;;7.40;6.90;;;13.10;75.70;;;;;;6188044;28;20244;-84
2023/09/24 04:21:14;;;;;;;6.93;6.53;;;13.10;75.70;;;;;;6182926;28;20243;-80
2023/09/24 04:24:18;;;;;;;6.43;5.93;;;13.10;75.90;;;;;;6187224;28;20259;-81
2023/09/24 04:27:22;;;;;;;7.93;7.43;;;13.10;75.80;;;;;;6188274;28;20317;-83
2023/09/24 04:30:26;;;;;;;8.53;7.93;;;13.20;75.70;;;;;;6188961;28;20247;-79
2023/09/24 04:33:31;;;;;;;8.70;8.10;;;13.20;75.80;;;;;;6185469;28;20236;-79
2023/09/24 04:36:34;;;;;;;9.10;8.40;;;13.20;75.90;;;;;;6184373;28;20235;-79
2023/09/24 04:39:37;;;;;;;8.63;7.93;;;13.20;75.80;;;;;;6186911;28;20242;-80
2023/09/24 04:42:42;;;;;;;10.50;8.77;;;13.30;75.80;;;;;;6184351;28;20239;-79
2023/09/24 04:45:45;;;;;;;10.50;9.67;;;13.20;75.70;;;;;;6184349;28;20256;-80
2023/09/24 04:48:48;;;;;;;10.43;9.73;;;13.20;75.70;;;;;;6187783;28;20235;-80
2023/09/24 04:51:51;;;;;;;11.00;10.10;;;13.10;76.00;;;;;;6187366;28;20243;-81
2023/09/24 04:54:55;;;;;;;11.03;9.87;;;13.10;76.20;;;;;;6187042;28;20657;-79
2023/09/24 04:57:59;;;;;;;11.83;10.73;;;13.10;76.20;;;;;;6186831;28;20297;-82
2023/09/24 05:01:06;;;;;;;11.10;10.23;;;13.10;76.30;;;;;;6187128;28;20770;-79
2023/09/24 05:04:09;;;;;;;12.03;10.93;;;13.10;76.20;;;;;;6182069;28;20866;-81
2023/09/24 05:07:13;;;;;;;13.23;11.93;;;13.10;76.40;;;;;;6186936;28;20244;-81
2023/09/24 05:10:16;;;;;;;13.23;11.87;;;13.10;76.70;;;;;;6184252;28;20239;-81
2023/09/24 05:13:20;;;;;;;12.80;11.70;;;13.10;76.70;;;;;;6187805;28;20363;-80
2023/09/24 05:16:24;;;;;;;12.47;11.23;;;13.10;76.60;;;;;;6182513;28;20391;-79
2023/09/24 05:19:27;;;;;;;11.83;10.83;;;13.10;76.60;;;;;;6185529;28;20625;-81
2023/09/24 05:22:30;;;;;;;12.33;11.33;;;13.10;76.80;;;;;;6180376;28;20278;-80
2023/09/24 05:25:35;;;;;;;13.13;12.00;;;13.10;76.70;;;;;;6183794;28;20248;-81
2023/09/24 05:28:39;;;;;;;12.57;11.43;;;13.10;76.80;;;;;;6185357;28;20811;-81
2023/09/24 05:31:42;;;;;;;13.47;12.07;;;13.10;76.90;;;;;;6187072;28;20367;-81
2023/09/24 05:34:45;;;;;;;11.93;11.00;;;13.10;76.80;;;;;;6182774;28;20323;-80
2023/09/24 05:37:48;;;;;;;13.20;11.83;;;13.10;77.00;;;;;;6188163;28;20243;-81
2023/09/24 05:40:51;;;;;;;12.63;11.57;;;13.10;76.90;;;;;;6189557;28;20247;-79
2023/09/24 05:44:01;;;;;;;12.57;11.53;;;13.10;77.00;;;;;;6191796;28;20315;-79
2023/09/24 05:47:06;;;;;;;13.93;12.63;;;13.10;76.80;;;;;;6190485;28;20243;-79
2023/09/24 05:50:10;;;;;;;12.57;11.63;;;13.00;76.90;;;;;;6190831;28;20247;-81
2023/09/24 05:53:15;;;;;;;12.70;11.77;;;13.00;76.90;;;;;;6184958;28;20239;-83
2023/09/24 05:56:18;;;;;;;12.40;11.50;;;12.90;77.40;;;;;;6190910;28;20294;-79
2023/09/24 05:59:22;;;;;;;11.27;10.47;;;12.90;77.60;;;;;;6189866;28;20720;-80
2023/09/24 06:02:25;;;;;;;11.27;10.40;;;12.90;77.70;;;;;;6191188;28;21017;-81
2023/09/24 06:05:29;;;;;;;11.03;10.23;;;12.90;77.70;;;;;;6188241;28;20244;-79
2023/09/24 06:08:32;;;;;;;10.80;10.07;;;13.00;77.40;;;;;;6185832;28;20325;-79
2023/09/24 06:11:36;;;;;;;10.27;9.67;;;13.00;77.20;;;;;;6187154;28;20246;-79
2023/09/24 06:14:40;;;;;;;11.63;10.50;;;13.00;77.30;;;;;;6192115;28;20242;-80
2023/09/24 06:17:43;;;;;;;10.20;9.40;;;13.00;77.20;;;;;;6171710;28;20244;-79
2023/09/24 06:20:47;;;;;;;11.07;10.17;;;13.00;77.30;;;;;;6189134;28;20847;-80
2023/09/24 06:23:50;;;;;;;9.80;9.17;;;13.00;77.30;;;;;;6190063;28;20243;-80
2023/09/24 06:26:53;;;;;;;10.10;9.37;;;13.00;77.30;;;;;;6190445;28;20231;-80
2023/09/24 06:29:57;;;;;;;9.30;8.60;;;13.00;77.30;;;;;;6189979;28;20243;-82
2023/09/24 06:33:01;;;;;;;8.93;8.07;;;13.00;77.30;;;;;;6186351;28;20240;-81
2023/09/24 06:36:04;;;;;;;8.10;7.53;;;13.00;77.10;;;;;;6184874;28;20240;-81
2023/09/24 06:39:09;;;;;;;8.67;8.10;;;13.10;77.00;;;;;;6188536;28;20631;-81
2023/09/24 06:42:12;;;;;;;8.73;8.13;;;13.20;76.60;;;;;;6188861;28;20232;-81
2023/09/24 06:45:17;;;;;;;8.70;7.97;;;13.30;76.40;;;;;;6190087;28;20232;-80
2023/09/24 06:48:20;;;;;;;7.13;6.53;;;13.30;76.30;;;;;;6188538;28;20248;-80
2023/09/24 06:51:24;;;;;;;8.90;8.27;;;13.30;76.40;;;;;;6184174;28;20270;-79
2023/09/24 06:54:27;;;;;;;7.83;7.23;;;13.50;76.10;;;;;;6187182;28;20239;-80
2023/09/24 06:57:32;;;;;;;7.37;6.80;;;13.50;76.20;;;;;;6190923;28;20603;-78
2023/09/24 07:00:36;;;;;;;8.43;7.70;;;13.60;76.10;;;;;;6187414;28;20717;-80
2023/09/24 07:03:39;;;;;;;7.87;7.40;;;13.70;75.50;;;;;;6188417;28;20733;-78
2023/09/24 07:06:43;;;;;;;8.43;7.90;;;13.90;75.50;;;;;;6182845;28;20243;-82
2023/09/24 07:09:48;;;;;;;8.03;7.43;;;13.90;74.40;;;;;;6187043;28;20232;-81
2023/09/24 07:12:52;;;;;;;8.20;7.63;;;13.90;74.70;;;;;;6187894;28;20269;-80
2023/09/24 07:15:57;;;;;;;8.93;8.43;;;14.00;74.50;;;;;;6188123;28;20715;-82
2023/09/24 07:19:00;;;;;;;8.53;7.93;;;14.10;74.10;;;;;;6187921;28;20316;-78
2023/09/24 07:22:03;;;;;;;8.63;7.80;;;14.00;73.80;;;;;;6188418;28;20335;-81
2023/09/24 07:25:07;;;;;;;7.23;6.73;;;13.90;74.10;;;;;;6188779;28;20239;-80
2023/09/24 07:28:10;;;;;;;7.83;7.07;;;14.00;74.30;;;;;;6186442;28;20387;-79
2023/09/24 07:31:17;;;;;;;8.33;7.47;;;14.20;73.90;;;;;;6188107;28;20235;-83
2023/09/24 07:34:20;;;;;;;7.63;6.80;;;14.40;73.50;;;;;;6182074;28;20243;-79
2023/09/24 07:37:23;;;;;;;7.20;6.70;;;14.50;73.20;;;;;;6185310;28;20247;-82
2023/09/24 07:40:26;;;;;;;8.87;8.13;;;14.60;72.50;;;;;;6189402;28;20236;-79
2023/09/24 07:43:30;;;;;;;8.23;7.73;;;14.60;71.80;;;;;;6192851;28;20740;-79
2023/09/24 07:46:34;;;;;;;7.93;7.43;;;14.60;72.20;;;;;;6185562;28;20411;-79
2023/09/24 07:49:38;;;;;;;10.03;9.07;;;14.70;72.10;;;;;;6189367;28;20247;-81
2023/09/24 07:52:41;;;;;;;9.83;9.13;;;14.80;71.90;;;;;;6190739;28;20713;-79
2023/09/24 07:55:45;;;;;;;10.37;9.57;;;14.90;70.70;;;;;;6188834;28;20746;-80
2023/09/24 07:58:48;;;;;;;10.87;10.00;;;14.90;70.30;;;;;;6189448;28;20231;-81
2023/09/24 08:01:52;;;;;;;9.33;8.70;;;14.90;70.60;;;;;;6192712;28;20244;-81
2023/09/24 08:04:57;;;;;;;8.60;8.20;;;15.00;70.50;;;;;;6191937;28;20549;-81
2023/09/24 08:08:00;;;;;;;8.23;7.73;;;15.00;70.80;;;;;;6190207;28;20626;-81
2023/09/24 08:11:03;;;;;;;8.80;8.27;;;15.20;69.90;;;;;;6189847;28;20331;-81
2023/09/24 08:14:06;;;;;;;8.77;8.07;;;15.20;69.90;;;;;;6194837;28;20607;-81
2023/09/24 08:17:11;;;;;;;8.40;7.80;;;15.20;69.60;;;;;;6189513;28;20244;-80
2023/09/24 08:20:14;;;;;;;7.57;7.17;;;15.20;69.30;;;;;;6193402;28;20279;-81
2023/09/24 08:23:18;;;;;;;7.60;7.10;;;15.30;69.50;;;;;;6192213;28;20309;-82
2023/09/24 08:26:21;;;;;;;7.23;6.70;;;15.40;69.00;;;;;;6190487;28;20312;-80
2023/09/24 08:29:25;;;;;;;6.10;5.80;;;15.30;69.70;;;;;;6187409;28;20279;-81
2023/09/24 08:32:30;;;;;;;6.70;6.30;;;15.40;69.50;;;;;;6193319;28;20244;-80
2023/09/24 08:35:33;;;;;;;5.87;5.53;;;15.60;68.70;;;;;;6184286;28;20857;-81
2023/09/24 08:38:36;;;;;;;5.93;5.47;;;15.50;68.50;;;;;;6190233;28;20302;-80
2023/09/24 08:41:44;;;;;;;5.90;5.43;;;15.30;69.70;;;;;;6188033;28;20228;-81
2023/09/24 08:44:57;;;;;;;5.80;5.40;;;15.20;69.50;;;;;;6190234;28;20739;-83
2023/09/24 08:48:07;;;;;;;5.37;5.07;;;15.50;69.50;;;;;;6176789;28;20240;-78
2023/09/24 08:51:10;;;;;;;5.30;5.10;;;15.60;69.00;;;;;;6222539;28;20243;-80
2023/09/24 08:54:14;;;;;;;5.40;5.00;;;15.80;68.50;;;;;;6219287;28;20250;-80
2023/09/24 08:57:18;;;;;;;4.43;4.33;;;15.70;67.70;;;;;;6219668;28;20259;-81
2023/09/24 09:00:21;;;;;;;4.73;4.33;;;15.70;68.40;;;;;;6219012;28;20246;-80
2023/09/24 09:03:26;;;;;;;4.70;4.50;;;15.80;68.40;;;;;;6217915;28;20351;-79
2023/09/24 09:06:36;;;;;;;5.30;4.97;;;16.00;67.90;;;;;;6218382;28;20224;-82
2023/09/24 09:09:39;;;;;;;4.83;4.60;;;15.80;67.50;;;;;;6215598;28;20400;-81
2023/09/24 09:12:42;;;;;;;4.70;4.30;;;15.80;67.60;;;;;;6217292;28;20255;-79
2023/09/24 09:15:46;;;;;;;4.30;4.00;;;15.60;68.20;;;;;;6224280;28;20232;-82
2023/09/24 09:19:01;;;;;;;4.63;4.43;;;15.60;68.70;;;;;;6223595;28;20312;-82
2023/09/24 09:22:17;;;;;;;5.07;4.40;;;15.80;67.80;;;;;;6225260;28;20220;-84
2023/09/24 09:25:21;;;;;;;4.53;4.13;;;15.90;67.90;;;;;;6224358;28;20236;-81
2023/09/24 09:28:26;;;;;;;4.20;4.00;;;16.10;67.70;;;;;;6224722;28;20232;-80
2023/09/24 09:31:29;;;;;;;4.03;3.93;;;16.20;66.80;;;;;;6222827;28;20227;-79
2023/09/24 09:34:34;;;;;;;3.80;3.60;;;16.60;65.60;;;;;;6220704;28;21956;-81
2023/09/24 09:37:38;;;;;;;4.70;4.27;;;16.50;65.80;;;;;;6211351;28;20220;-81
2023/09/24 09:40:41;;;;;;;4.40;4.10;;;16.60;64.70;;;;;;6223835;28;20240;-79
2023/09/24 09:43:46;;;;;;;4.20;4.00;;;16.50;65.40;;;;;;6223605;28;20227;-80
2023/09/24 09:46:50;;;;;;;4.20;3.90;;;16.60;65.40;;;;;;6224454;28;20228;-81
2023/09/24 09:49:58;;;;;;;4.80;4.50;;;16.70;65.20;;;;;;6218408;28;20224;-80
2023/09/24 09:53:06;;;;;;;3.27;3.17;;;16.20;66.20;;;;;;6221948;28;20348;-81
2023/09/24 09:56:11;;;;;;;4.53;4.30;;;16.50;66.30;;;;;;6199450;28;20240;-80
2023/09/24 09:59:16;;;;;;;3.53;3.43;;;16.80;65.20;;;;;;6195820;28;20833;-81
2023/09/24 10:02:19;;;;;;;3.50;3.40;;;17.00;65.10;;;;;;6183329;28;20998;-81
2023/09/24 10:05:24;;;;;;;4.00;3.70;;;17.10;64.70;;;;;;6193299;28;20274;-80
2023/09/24 10:08:42;;;;;;;3.53;3.23;;;16.90;64.80;;;;;;6192269;28;20313;-80
2023/09/24 10:11:52;;;;;;;4.53;3.80;;;16.80;65.50;;;;;;6191400;28;20235;-80
2023/09/24 10:14:57;;;;;;;3.10;2.90;;;17.00;65.20;;;;;;6190417;28;20617;-81
2023/09/24 10:18:27;;;;;;;3.03;2.83;;;17.20;64.70;;;;;;6190736;28;20240;-81
2023/09/24 10:21:47;;;;;;;3.03;2.73;;;17.20;64.40;;;;;;6186079;28;20232;-82
2023/09/24 10:24:50;;;;;;;3.10;2.80;;;17.60;63.30;;;;;;6184351;28;20375;-80
2023/09/24 10:28:06;;;;;;;3.23;2.90;;;17.60;62.90;;;;;;6191555;28;20254;-81
2023/09/24 10:31:13;;;;;;;3.10;3.00;;;18.10;63.00;;;;;;6185658;28;20264;-79
2023/09/24 10:34:16;;;;;;;4.27;3.10;;;18.40;61.70;;;;;;6188323;28;20326;-81
2023/09/24 10:37:22;;;;;;;3.27;2.53;;;18.30;60.70;;;;;;6181085;28;20235;-81
2023/09/24 10:40:27;;;;;;;2.60;2.40;;;18.40;60.30;;;;;;6187475;28;20228;-80
2023/09/24 10:43:30;;;;;;;2.97;2.70;;;18.40;60.00;;;;;;6191187;28;20612;-80
2023/09/24 10:46:33;;;;;;;2.20;2.10;;;18.30;59.20;;;;;;6191306;28;20232;-81
2023/09/24 10:49:36;;;;;;;2.40;2.30;;;18.30;59.60;;;;;;6190749;28;20681;-81
2023/09/24 10:52:51;;;;;;;2.87;2.67;;;18.30;59.10;;;;;;6190789;28;20240;-80
2023/09/24 10:55:54;;;;;;;3.07;2.87;;;18.30;59.10;;;;;;6189866;28;20273;-81
2023/09/24 10:59:13;;;;;;;2.53;2.40;;;18.00;59.10;;;;;;6191371;28;20232;-80
2023/09/24 11:02:16;;;;;;;3.23;3.03;;;17.80;60.00;;;;;;6193501;28;20862;-81
2023/09/24 11:05:24;;;;;;;2.83;2.37;;;17.80;60.40;;;;;;6192703;28;20236;-80
2023/09/24 11:08:30;;;;;;;5.60;3.00;;;17.90;59.40;;;;;;6190666;28;20236;-80
2023/09/24 11:11:34;;;;;;;2.53;2.27;;;18.20;59.50;;;;;;6192980;28;20243;-82
2023/09/24 11:14:37;;;;;;;2.70;2.50;;;18.50;59.00;;;;;;6188976;28;20251;-81
2023/09/24 11:17:40;;;;;;;2.30;2.20;;;18.80;58.20;;;;;;6188614;28;20244;-80
2023/09/24 11:20:53;;;;;;;3.00;2.80;;;19.00;57.50;;;;;;6190125;28;20327;-81
2023/09/24 11:23:58;;;;;;;3.10;2.53;;;19.10;57.20;;;;;;6189668;28;20237;-82
2023/09/24 11:27:02;;;;;;;4.00;2.87;;;19.40;56.50;;;;;;6189573;28;20239;-82
2023/09/24 11:30:06;;;;;;;3.53;2.93;;;19.50;57.00;;;;;;6183306;28;20940;-81
2023/09/24 11:33:14;;;;;;;2.67;2.47;;;19.90;56.80;;;;;;6189961;28;20240;-81
2023/09/24 11:36:20;;;;;;;2.77;2.57;;;20.10;56.20;;;;;;6187261;28;20240;-81
2023/09/24 11:39:24;;;;;;;2.90;2.70;;;20.10;54.40;;;;;;6186764;28;21244;-80
2023/09/24 11:42:27;;;;;;;2.63;2.50;;;20.00;55.40;;;;;;6188873;28;20236;-81
2023/09/24 11:45:43;;;;;;;2.50;2.50;;;19.90;55.80;;;;;;6187804;28;20232;-82
2023/09/24 11:48:46;;;;;;;2.53;2.43;;;20.10;56.00;;;;;;6185653;28;20346;-81
2023/09/24 11:51:55;;;;;;;2.70;2.50;;;20.40;54.90;;;;;;6189917;28;20252;-81
2023/09/24 11:54:59;;;;;;;2.53;2.40;;;20.70;55.70;;;;;;6189499;28;20228;-80
2023/09/24 11:58:04;;;;;;;2.73;2.63;;;21.10;54.70;;;;;;6190016;28;20762;-81
2023/09/24 12:01:09;;;;;;;4.10;3.00;;;21.30;53.60;;;;;;6189275;28;20236;-82
2023/09/24 12:04:12;;;;;;;3.53;2.87;;;21.60;53.80;;;;;;6188265;28;20334;-80
2023/09/24 12:07:16;;;;;;;2.27;2.17;;;21.80;52.40;;;;;;6188439;28;20675;-81
2023/09/24 12:10:22;;;;;;;3.40;2.63;;;21.90;52.20;;;;;;6181021;28;20641;-81
2023/09/24 12:13:25;;;;;;;2.27;2.17;;;22.00;51.20;;;;;;6186930;28;20291;-83
2023/09/24 12:16:28;;;;;;;2.83;2.63;;;22.10;50.00;;;;;;6191121;28;20239;-82
2023/09/24 12:19:32;;;;;;;2.70;2.60;;;22.10;50.50;;;;;;6190721;28;20239;-82
2023/09/24 12:22:35;;;;;;;2.43;2.33;;;21.90;50.50;;;;;;6192145;28;20354;-82
2023/09/24 12:25:41;;;;;;;2.80;2.80;;;21.90;51.40;;;;;;6185113;28;20318;-82
2023/09/24 12:28:44;;;;;;;3.60;3.50;;;21.60;51.10;;;;;;6188687;28;20307;-80
2023/09/24 12:31:47;;;;;;;3.13;2.90;;;21.40;52.00;;;;;;6186781;28;20890;-80
2023/09/24 12:34:51;;;;;;;2.77;2.57;;;21.40;51.10;;;;;;6188171;28;20715;-83
2023/09/24 12:37:54;;;;;;;2.90;2.70;;;21.40;52.10;;;;;;6189677;28;20235;-82
2023/09/24 12:41:00;;;;;;;2.53;2.43;;;21.40;52.00;;;;;;6188455;28;20239;-82
2023/09/24 12:44:03;;;;;;;3.53;2.53;;;21.40;51.80;;;;;;6190003;28;20263;-82
2023/09/24 12:47:07;;;;;;;2.80;2.70;;;21.30;52.40;;;;;;6185245;28;20240;-82
2023/09/24 12:50:12;;;;;;;2.73;2.57;;;21.10;51.90;;;;;;6188439;28;20242;-82
2023/09/24 12:53:15;;;;;;;3.23;2.10;;;21.00;51.80;;;;;;6188387;28;20356;-82
2023/09/24 12:56:21;;;;;;;2.73;2.57;;;20.90;52.20;;;;;;6192769;28;20242;-83
2023/09/24 12:59:24;;;;;;;2.87;2.67;;;20.90;52.30;;;;;;6180613;28;20326;-81
2023/09/24 13:02:28;;;;;;;3.23;2.80;;;20.70;51.90;;;;;;6190268;28;20259;-81
2023/09/24 13:05:32;;;;;;;2.20;2.20;;;20.60;52.60;;;;;;6187488;28;20243;-81
2023/09/24 13:08:35;;;;;;;2.60;2.40;;;20.50;53.00;;;;;;6185417;28;20266;-81
2023/09/24 13:11:39;;;;;;;2.57;2.47;;;20.30;53.50;;;;;;6177826;28;20522;-81
2023/09/24 13:14:43;;;;;;;2.47;2.37;;;20.10;54.00;;;;;;6187269;28;20876;-84
2023/09/24 13:17:47;;;;;;;2.60;2.50;;;19.90;53.40;;;;;;6177559;28;20259;-83
2023/09/24 13:20:50;;;;;;;2.27;2.17;;;19.60;53.40;;;;;;6203210;28;20752;-81
2023/09/24 13:23:53;;;;;;;3.20;2.33;;;19.40;53.90;;;;;;6187076;28;20239;-83
2023/09/24 13:26:58;;;;;;;2.60;2.40;;;19.30;54.80;;;;;;6188845;28;20888;-83
2023/09/24 13:30:01;;;;;;;2.70;2.40;;;19.20;54.50;;;;;;6188456;28;20228;-82
2023/09/24 13:33:05;;;;;;;2.37;2.27;;;19.20;55.70;;;;;;6192115;28;20290;-81
2023/09/24 13:36:08;;;;;;;2.13;2.10;;;19.30;54.40;;;;;;6182092;28;20228;-83
2023/09/24 13:39:11;;;;;;;3.90;2.20;;;19.40;54.00;;;;;;6186743;28;20252;-82
2023/09/24 13:42:16;;;;;;;2.40;2.30;;;19.50;54.40;;;;;;6192376;28;20790;-81
2023/09/24 13:45:19;;;;;;;2.30;2.20;;;19.30;53.90;;;;;;6186889;28;20327;-81
2023/09/24 13:48:22;;;;;;;2.20;2.10;;;19.50;54.10;;;;;;6187639;28;20248;-80
2023/09/24 13:51:28;;;;;;;2.67;2.50;;;19.70;53.70;;;;;;6181976;28;20662;-82
2023/09/24 13:54:31;;;;;;;2.47;2.37;;;19.70;52.50;;;;;;6181160;28;20243;-81
2023/09/24 13:57:36;;;;;;;2.20;2.10;;;19.50;53.80;;;;;;6188690;28;20236;-81
2023/09/24 14:00:40;;;;;;;2.50;2.40;;;19.30;53.50;;;;;;6191182;28;20896;-81
2023/09/24 14:03:43;;;;;;;2.20;2.10;;;19.10;54.10;;;;;;6192530;28;20247;-81
2023/09/24 14:06:47;;;;;;;2.43;2.33;;;19.10;53.70;;;;;;6191246;28;20237;-83
2023/09/24 14:13:12;;;;;;;1.97;1.97;;;18.90;54.50;;;;;;6184820;28;20257;-81
2023/09/24 14:16:16;;;;;;;2.07;2.03;;;18.80;55.10;;;;;;6188043;28;20267;-82
2023/09/24 14:19:20;;;;;;;2.43;2.23;;;18.70;55.90;;;;;;6197889;28;20232;-81
2023/09/24 14:22:23;;;;;;;2.30;2.30;;;18.60;55.70;;;;;;6191844;28;20243;-81
2023/09/24 14:25:26;;;;;;;3.07;2.67;;;18.60;55.80;;;;;;6189026;28;20246;-81
2023/09/24 14:28:31;;;;;;;2.50;2.30;;;18.60;56.70;;;;;;6188647;28;20737;-82
2023/09/24 14:31:34;;;;;;;2.40;2.30;;;18.70;56.50;;;;;;6185757;28;20244;-81
2023/09/24 14:34:37;;;;;;;2.57;2.47;;;18.90;55.90;;;;;;6190013;28;20240;-81
2023/09/24 14:37:41;;;;;;;2.33;2.17;;;19.10;55.70;;;;;;6188298;28;20236;-81
2023/09/24 14:40:44;;;;;;;2.30;2.20;;;19.30;56.10;;;;;;6189935;28;20236;-81
2023/09/24 14:43:49;;;;;;;2.23;2.13;;;19.50;55.70;;;;;;6188718;28;20309;-83
2023/09/24 14:46:52;;;;;;;2.27;2.20;;;19.70;55.20;;;;;;6189739;28;20251;-82
2023/09/24 14:49:56;;;;;;;2.47;2.17;;;19.80;55.20;;;;;;6188515;28;20750;-82
2023/09/24 14:52:59;;;;;;;2.80;1.80;;;20.00;55.40;;;;;;6190510;28;20243;-81
2023/09/24 14:56:04;;;;;;;2.30;2.20;;;20.00;54.60;;;;;;6187867;28;20240;-82
2023/09/24 14:59:09;;;;;;;2.07;2.03;;;20.20;54.20;;;;;;6181849;28;20240;-80
2023/09/24 15:02:23;;;;;;;2.13;2.13;;;20.20;53.70;;;;;;6192045;28;20244;-81
2023/09/24 15:05:29;;;;;;;4.83;2.03;;;20.20;52.90;;;;;;6177124;28;20247;-83
2023/09/24 15:08:32;;;;;;;2.10;2.10;;;20.10;53.50;;;;;;6190188;28;20231;-83
2023/09/24 15:11:39;;;;;;;1.70;1.70;;;20.10;54.00;;;;;;6186880;28;20232;-82
2023/09/24 15:14:44;;;;;;;2.07;1.97;;;20.00;53.90;;;;;;6187670;28;20236;-82
2023/09/24 15:17:47;;;;;;;2.53;2.30;;;20.00;54.00;;;;;;6190294;28;20255;-82
2023/09/24 15:20:51;;;;;;;2.33;2.33;;;19.80;55.20;;;;;;6189779;28;20750;-82
2023/09/24 15:23:54;;;;;;;2.53;2.43;;;19.60;55.20;;;;;;6183272;28;20338;-81
2023/09/24 15:26:57;;;;;;;2.47;2.37;;;19.40;55.20;;;;;;6188955;28;20764;-81
2023/09/24 15:30:04;;;;;;;3.17;2.97;;;19.20;55.30;;;;;;6187641;28;20232;-82
2023/09/24 15:33:07;;;;;;;3.23;3.03;;;19.00;56.50;;;;;;6184007;28;20248;-80
2023/09/24 15:36:10;;;;;;;2.77;2.67;;;18.80;56.80;;;;;;6181957;28;20239;-83
2023/09/24 15:39:14;;;;;;;2.83;2.73;;;18.60;57.90;;;;;;6185346;28;20441;-80
2023/09/24 15:42:17;;;;;;;3.00;2.80;;;18.40;58.60;;;;;;6189477;28;20319;-81
2023/09/24 15:45:22;;;;;;;2.73;2.53;;;18.20;58.60;;;;;;6189584;28;20569;-81
2023/09/24 15:48:25;;;;;;;3.00;2.80;;;18.10;59.30;;;;;;6192182;28;20839;-79
2023/09/24 15:51:28;;;;;;;2.80;2.70;;;18.00;60.20;;;;;;6191052;28;20236;-82
2023/09/24 15:54:32;;;;;;;3.53;3.23;;;17.80;60.00;;;;;;6188939;28;20912;-80
2023/09/24 15:57:36;;;;;;;2.87;2.77;;;17.80;60.00;;;;;;6187417;28;20251;-82
2023/09/24 16:00:41;;;;;;;2.57;2.47;;;17.60;60.10;;;;;;6188019;28;20319;-78
2023/09/24 16:03:44;;;;;;;4.07;3.90;;;17.50;60.20;;;;;;6188663;28;20247;-78